Time;durP1;ratioP1;P1;durP2;ratioP2;P2;SDS_P1;SDS_P2;PMS_P1;PMS_P2;Temp;Humidity;BMP_temperature;BMP_pressure;BME280_temperature;BME280_humidity;BME280_pressure;Samples;Min_cycle;Max_cycle;Signal;HPM_P1;HPM_P2
2024/01/15 00:01:44;;;;;;;12.00;7.33;;;2.00;99.90;;;;;;5004901;28;20441;-67
2024/01/15 00:04:10;;;;;;;20.67;10.60;;;2.00;99.90;;;;;;5002749;28;20485;-68
2024/01/15 00:06:37;;;;;;;13.27;7.70;;;2.00;99.90;;;;;;5001431;28;20461;-67
2024/01/15 00:09:06;;;;;;;22.80;9.83;;;2.10;99.90;;;;;;4999181;28;20472;-67
2024/01/15 00:11:33;;;;;;;14.30;5.43;;;2.00;99.90;;;;;;5006029;28;20476;-67
2024/01/15 00:14:00;;;;;;;5.13;4.67;;;2.00;99.90;;;;;;4997605;28;20425;-67
2024/01/15 00:16:26;;;;;;;9.93;7.00;;;2.10;99.90;;;;;;5002622;28;20439;-66
2024/01/15 00:18:53;;;;;;;6.93;5.50;;;2.10;99.90;;;;;;5001478;28;20979;-66
2024/01/15 00:21:20;;;;;;;8.10;7.23;;;2.10;99.90;;;;;;5003115;28;20481;-67
2024/01/15 00:23:46;;;;;;;17.53;9.00;;;2.00;99.90;;;;;;5001606;28;20437;-67
2024/01/15 00:26:15;;;;;;;16.83;9.83;;;2.00;99.90;;;;;;5004197;28;20431;-67
2024/01/15 00:28:42;;;;;;;19.70;11.30;;;2.00;99.90;;;;;;5001740;28;21316;-67
2024/01/15 00:31:09;;;;;;;19.80;9.60;;;2.00;99.90;;;;;;5001821;28;20934;-67
2024/01/15 00:33:36;;;;;;;10.47;8.97;;;2.10;99.90;;;;;;5002419;28;20451;-67
2024/01/15 00:36:03;;;;;;;32.17;14.03;;;2.10;99.90;;;;;;4999472;28;20505;-67
2024/01/15 00:38:29;;;;;;;18.30;6.70;;;2.10;99.90;;;;;;5007664;28;20460;-66
2024/01/15 00:40:56;;;;;;;9.70;5.63;;;2.20;99.90;;;;;;5009285;28;20463;-67
2024/01/15 00:43:24;;;;;;;7.90;7.30;;;2.10;99.90;;;;;;5007474;28;20922;-68
2024/01/15 00:45:51;;;;;;;2.93;2.57;;;2.10;99.90;;;;;;5004275;28;20469;-67
2024/01/15 00:48:18;;;;;;;9.40;6.10;;;2.10;99.90;;;;;;5009503;28;20437;-67
2024/01/15 00:50:44;;;;;;;32.67;8.03;;;2.10;99.90;;;;;;5008394;28;21035;-68
2024/01/15 00:53:11;;;;;;;23.87;8.70;;;2.10;99.90;;;;;;5005905;28;20429;-68
2024/01/15 00:55:38;;;;;;;26.07;8.13;;;2.10;99.90;;;;;;5002743;28;20493;-68
2024/01/15 00:58:05;;;;;;;13.87;7.73;;;2.10;99.90;;;;;;5003426;28;20766;-67
2024/01/15 01:00:33;;;;;;;15.70;11.00;;;2.20;99.90;;;;;;5006904;28;20858;-68
2024/01/15 01:03:00;;;;;;;19.53;9.30;;;2.10;99.90;;;;;;5005804;28;20453;-68
2024/01/15 01:05:26;;;;;;;17.13;7.77;;;2.10;99.90;;;;;;4999196;28;20456;-68
2024/01/15 01:07:53;;;;;;;9.40;7.20;;;2.20;99.90;;;;;;5002701;28;20465;-67
2024/01/15 01:10:20;;;;;;;7.03;5.40;;;2.30;99.90;;;;;;5006400;28;20437;-68
2024/01/15 01:12:46;;;;;;;23.23;7.80;;;2.30;99.90;;;;;;5007782;28;20450;-67
2024/01/15 01:15:13;;;;;;;14.57;7.90;;;2.30;99.90;;;;;;5002103;28;20466;-67
2024/01/15 01:17:41;;;;;;;10.30;5.67;;;2.40;99.90;;;;;;5008444;28;20445;-68
2024/01/15 01:20:10;;;;;;;7.33;4.80;;;2.30;99.90;;;;;;5005831;28;20550;-68
2024/01/15 01:22:37;;;;;;;16.23;6.13;;;2.30;99.90;;;;;;5003675;28;20499;-66
2024/01/15 01:25:04;;;;;;;6.87;5.10;;;2.40;99.90;;;;;;5006836;28;20460;-67
2024/01/15 01:27:31;;;;;;;17.90;8.33;;;2.30;99.90;;;;;;5006643;28;20786;-66
2024/01/15 01:29:58;;;;;;;17.47;7.73;;;2.30;99.90;;;;;;4998742;28;20467;-67
2024/01/15 01:32:25;;;;;;;9.47;5.17;;;2.30;99.90;;;;;;4994412;28;20437;-67
2024/01/15 01:34:53;;;;;;;7.57;5.07;;;2.30;99.90;;;;;;5004494;28;20435;-68
2024/01/15 01:37:19;;;;;;;8.90;5.17;;;2.20;99.90;;;;;;5005171;28;20473;-68
2024/01/15 01:39:46;;;;;;;13.77;6.80;;;2.20;99.90;;;;;;5002079;28;20412;-67
2024/01/15 01:42:13;;;;;;;12.77;4.57;;;2.20;99.90;;;;;;4996498;28;20470;-67
2024/01/15 01:44:40;;;;;;;14.53;6.20;;;2.30;99.90;;;;;;5002373;28;20443;-67
2024/01/15 01:47:07;;;;;;;13.23;6.33;;;2.30;99.90;;;;;;5003640;28;20773;-67
2024/01/15 01:49:35;;;;;;;11.10;6.50;;;2.30;99.90;;;;;;5000604;28;20462;-67
2024/01/15 01:52:05;;;;;;;12.20;9.27;;;2.30;99.90;;;;;;5000082;28;20798;-67
2024/01/15 01:54:33;;;;;;;4.83;4.33;;;2.30;99.90;;;;;;4999310;28;20476;-67
2024/01/15 01:57:00;;;;;;;10.40;6.60;;;2.20;99.90;;;;;;5005982;28;20449;-67
2024/01/15 01:59:28;;;;;;;8.90;5.97;;;2.20;99.90;;;;;;5001646;28;20453;-67
2024/01/15 02:01:55;;;;;;;9.23;6.57;;;2.10;99.90;;;;;;4999966;28;20481;-67
2024/01/15 02:04:24;;;;;;;5.20;4.90;;;2.20;99.90;;;;;;5001774;28;21040;-67
2024/01/15 02:06:51;;;;;;;14.97;6.77;;;2.20;99.90;;;;;;5004060;28;20416;-68
2024/01/15 02:09:19;;;;;;;4.43;4.00;;;2.20;99.90;;;;;;5002854;28;20412;-67
2024/01/15 02:11:47;;;;;;;6.10;5.50;;;2.30;99.90;;;;;;5001026;28;20439;-68
2024/01/15 02:14:14;;;;;;;10.57;6.97;;;2.30;99.90;;;;;;4990629;28;21251;-67
2024/01/15 02:16:41;;;;;;;6.43;4.50;;;2.30;99.90;;;;;;5007599;28;20788;-68
2024/01/15 02:19:08;;;;;;;9.67;7.27;;;2.40;99.90;;;;;;5008453;28;20606;-67
2024/01/15 02:21:35;;;;;;;11.90;7.63;;;2.40;99.90;;;;;;5001669;28;20459;-67
2024/01/15 02:24:03;;;;;;;12.30;9.77;;;2.20;99.90;;;;;;5003723;28;20466;-68
2024/01/15 02:26:30;;;;;;;13.47;8.97;;;2.20;99.90;;;;;;5004514;28;20420;-67
2024/01/15 02:28:56;;;;;;;8.47;3.77;;;2.20;99.90;;;;;;5005329;28;20965;-67
2024/01/15 02:31:23;;;;;;;13.60;7.20;;;2.20;99.90;;;;;;5004650;28;20435;-68
2024/01/15 02:33:50;;;;;;;30.00;5.53;;;2.30;99.90;;;;;;5003681;28;20451;-67
2024/01/15 02:36:17;;;;;;;19.53;6.40;;;2.30;99.90;;;;;;4990186;28;20432;-67
2024/01/15 02:38:43;;;;;;;10.80;7.67;;;2.30;99.90;;;;;;5004580;28;20437;-67
2024/01/15 02:41:14;;;;;;;20.27;9.07;;;2.30;99.90;;;;;;5004141;28;20531;-67
2024/01/15 02:43:40;;;;;;;11.00;5.20;;;2.30;99.90;;;;;;5002371;28;20443;-67
2024/01/15 02:46:07;;;;;;;19.70;10.70;;;2.40;99.90;;;;;;4999562;28;20542;-67
2024/01/15 02:48:34;;;;;;;10.90;6.50;;;2.30;99.90;;;;;;5006787;28;20774;-67
2024/01/15 02:51:01;;;;;;;6.33;4.67;;;2.30;99.90;;;;;;5000910;28;20491;-67
2024/01/15 02:53:28;;;;;;;9.73;7.80;;;2.30;99.90;;;;;;5001403;28;20542;-67
2024/01/15 02:55:55;;;;;;;15.53;5.40;;;2.30;99.90;;;;;;5003766;28;20816;-66
2024/01/15 02:58:23;;;;;;;9.27;6.00;;;2.30;99.90;;;;;;4999901;28;20459;-68
2024/01/15 03:00:50;;;;;;;8.83;6.00;;;2.20;99.90;;;;;;4998474;28;20764;-66
2024/01/15 03:03:16;;;;;;;19.30;6.23;;;2.20;99.90;;;;;;5002354;28;20477;-68
2024/01/15 03:05:43;;;;;;;8.33;3.97;;;2.20;99.90;;;;;;4994973;28;20477;-68
2024/01/15 03:08:10;;;;;;;11.13;7.20;;;2.30;99.90;;;;;;4998340;28;20420;-68
2024/01/15 03:10:37;;;;;;;14.47;10.43;;;2.30;99.90;;;;;;5002310;28;20473;-68
2024/01/15 03:13:04;;;;;;;5.80;4.03;;;2.40;99.90;;;;;;5001859;28;21179;-67
2024/01/15 03:15:32;;;;;;;16.03;7.20;;;2.40;99.90;;;;;;4998065;28;20458;-68
2024/01/15 03:17:58;;;;;;;12.20;7.87;;;2.40;99.90;;;;;;4996093;28;20473;-67
2024/01/15 03:20:25;;;;;;;6.83;4.17;;;2.30;99.90;;;;;;4998846;28;20531;-67
2024/01/15 03:22:52;;;;;;;11.97;4.73;;;2.30;99.90;;;;;;4997199;28;20468;-67
2024/01/15 03:25:19;;;;;;;15.13;7.20;;;2.30;99.90;;;;;;4993310;28;20447;-68
2024/01/15 03:27:45;;;;;;;14.30;8.13;;;2.30;99.90;;;;;;5000722;28;20808;-68
2024/01/15 03:30:13;;;;;;;11.87;8.30;;;2.20;99.90;;;;;;4994085;28;20452;-69
2024/01/15 03:32:41;;;;;;;9.63;6.20;;;2.30;99.90;;;;;;4998941;28;20458;-68
2024/01/15 03:35:08;;;;;;;10.50;7.93;;;2.40;99.90;;;;;;4996462;28;20455;-67
2024/01/15 03:37:35;;;;;;;9.63;5.27;;;2.40;99.90;;;;;;5002439;28;20412;-67
2024/01/15 03:40:02;;;;;;;3.37;2.90;;;2.30;99.90;;;;;;4998489;28;20503;-67
2024/01/15 03:42:29;;;;;;;13.67;8.80;;;2.20;99.90;;;;;;5002395;28;20488;-68
2024/01/15 03:44:56;;;;;;;7.13;3.13;;;2.20;99.90;;;;;;5000338;28;20489;-69
2024/01/15 03:47:22;;;;;;;36.20;6.20;;;2.20;99.90;;;;;;4995877;28;20469;-68
2024/01/15 03:49:50;;;;;;;16.63;9.17;;;2.30;99.90;;;;;;5005135;28;20442;-67
2024/01/15 03:52:17;;;;;;;13.43;5.30;;;2.30;99.90;;;;;;5008219;28;20419;-67
2024/01/15 03:54:44;;;;;;;4.90;3.03;;;2.40;99.90;;;;;;5001007;28;20486;-68
2024/01/15 03:57:10;;;;;;;14.80;9.00;;;2.40;99.90;;;;;;4996719;28;20468;-68
2024/01/15 03:59:37;;;;;;;5.77;2.60;;;2.40;99.90;;;;;;4999814;28;20445;-67
2024/01/15 04:02:05;;;;;;;12.77;5.33;;;2.40;99.90;;;;;;5001519;28;20462;-67
2024/01/15 04:04:32;;;;;;;14.90;6.27;;;2.40;99.90;;;;;;4997856;28;20544;-68
2024/01/15 04:07:00;;;;;;;5.80;4.30;;;2.40;99.90;;;;;;4995458;28;20445;-68
2024/01/15 04:09:27;;;;;;;13.33;5.30;;;2.40;99.90;;;;;;5002342;28;20457;-68
2024/01/15 04:11:54;;;;;;;2.53;2.33;;;2.50;99.90;;;;;;4995948;28;20461;-68
2024/01/15 04:14:21;;;;;;;22.30;6.50;;;2.40;99.90;;;;;;4997970;28;20460;-68
2024/01/15 04:16:47;;;;;;;2.37;2.17;;;2.50;99.90;;;;;;4995546;28;20448;-68
2024/01/15 04:19:14;;;;;;;12.20;7.30;;;2.40;99.90;;;;;;4990284;28;20458;-68
2024/01/15 04:21:41;;;;;;;9.60;5.40;;;2.50;99.90;;;;;;4997416;28;21030;-68
2024/01/15 04:24:09;;;;;;;10.43;5.70;;;2.50;99.90;;;;;;4997975;28;20791;-68
2024/01/15 04:26:36;;;;;;;8.73;5.00;;;2.50;99.90;;;;;;4997191;28;20942;-68
2024/01/15 04:29:02;;;;;;;8.00;5.70;;;2.50;99.90;;;;;;4995804;28;20433;-68
2024/01/15 04:31:29;;;;;;;8.07;7.30;;;2.50;99.90;;;;;;5002497;28;20413;-67
2024/01/15 04:33:56;;;;;;;7.27;5.27;;;2.50;99.90;;;;;;5000685;28;20415;-68
2024/01/15 04:36:23;;;;;;;6.17;3.43;;;2.50;99.90;;;;;;5000563;28;20441;-67
2024/01/15 04:38:52;;;;;;;15.50;5.00;;;2.40;99.90;;;;;;5000597;28;20941;-68
2024/01/15 04:41:20;;;;;;;3.53;3.17;;;2.50;99.90;;;;;;4997239;28;20453;-68
2024/01/15 04:43:47;;;;;;;10.10;4.60;;;2.50;99.90;;;;;;5001380;28;20949;-67
2024/01/15 04:46:14;;;;;;;3.33;2.87;;;2.40;99.90;;;;;;5000622;28;20416;-67
2024/01/15 04:48:41;;;;;;;7.87;4.03;;;2.40;99.90;;;;;;5001269;28;20541;-67
2024/01/15 04:51:10;;;;;;;7.57;4.90;;;2.40;99.90;;;;;;5005757;28;20435;-68
2024/01/15 04:53:37;;;;;;;3.40;2.40;;;2.50;99.90;;;;;;5007258;28;20449;-68
2024/01/15 04:56:04;;;;;;;6.20;4.83;;;2.60;99.90;;;;;;4997308;28;20460;-68
2024/01/15 04:58:32;;;;;;;20.03;3.00;;;2.60;99.90;;;;;;5002625;28;20460;-68
2024/01/15 05:00:59;;;;;;;11.30;5.10;;;2.50;99.90;;;;;;4991352;28;20486;-68
2024/01/15 05:03:25;;;;;;;8.30;4.70;;;2.40;99.90;;;;;;4993153;28;20465;-67
2024/01/15 05:05:52;;;;;;;11.10;4.90;;;2.50;99.90;;;;;;4996718;28;20474;-68
2024/01/15 05:08:19;;;;;;;6.97;3.60;;;2.40;99.90;;;;;;4998966;28;20418;-68
2024/01/15 05:10:45;;;;;;;2.80;2.60;;;2.40;99.90;;;;;;5004379;28;20468;-68
2024/01/15 05:13:12;;;;;;;11.67;6.50;;;2.40;99.90;;;;;;5000335;28;20455;-68
2024/01/15 05:15:40;;;;;;;8.27;5.17;;;2.40;99.90;;;;;;4997883;28;20460;-68
2024/01/15 05:18:07;;;;;;;1.90;1.40;;;2.50;99.90;;;;;;4992305;28;20451;-68
2024/01/15 05:20:34;;;;;;;12.77;3.73;;;2.50;99.90;;;;;;4993395;28;20450;-68
2024/01/15 05:23:00;;;;;;;7.50;4.67;;;2.60;99.90;;;;;;5006249;28;20493;-68
2024/01/15 05:25:27;;;;;;;4.60;2.90;;;2.60;99.90;;;;;;5006075;28;20913;-68
2024/01/15 05:27:54;;;;;;;3.77;2.97;;;2.60;99.90;;;;;;5007552;28;20444;-68
2024/01/15 05:30:21;;;;;;;3.07;2.87;;;2.60;99.90;;;;;;5003595;28;21145;-69
2024/01/15 05:32:49;;;;;;;8.63;5.87;;;2.60;99.90;;;;;;4998725;28;20460;-68
2024/01/15 05:35:15;;;;;;;6.70;4.20;;;2.50;99.90;;;;;;5005020;28;20480;-68
2024/01/15 05:37:45;;;;;;;12.43;6.50;;;2.50;99.90;;;;;;5001468;28;20454;-68
2024/01/15 05:40:12;;;;;;;9.63;7.13;;;2.50;99.90;;;;;;5003381;28;20459;-68
2024/01/15 05:42:39;;;;;;;8.50;5.57;;;2.50;99.90;;;;;;5004149;28;20547;-69
2024/01/15 05:45:09;;;;;;;8.07;3.50;;;2.60;99.90;;;;;;5003337;28;20752;-68
2024/01/15 05:47:36;;;;;;;6.90;6.10;;;2.50;99.90;;;;;;5007296;28;20818;-68
2024/01/15 05:50:04;;;;;;;5.50;3.90;;;2.70;99.90;;;;;;4999129;28;20533;-68
2024/01/15 05:52:31;;;;;;;6.63;4.50;;;2.60;99.90;;;;;;5000770;28;20444;-68
2024/01/15 05:54:58;;;;;;;10.17;5.50;;;2.60;99.90;;;;;;5001413;28;20517;-68
2024/01/15 05:57:25;;;;;;;30.63;5.47;;;2.70;99.90;;;;;;4999186;28;20466;-68
2024/01/15 05:59:52;;;;;;;10.57;6.43;;;2.80;99.90;;;;;;5002559;28;20451;-68
2024/01/15 06:02:19;;;;;;;8.53;3.53;;;2.80;99.90;;;;;;5006305;28;20488;-68
2024/01/15 06:04:45;;;;;;;13.93;6.80;;;2.80;99.90;;;;;;5006727;28;20439;-68
2024/01/15 06:07:13;;;;;;;12.67;4.77;;;2.70;99.90;;;;;;5002527;28;20817;-68
2024/01/15 06:09:40;;;;;;;6.97;4.97;;;2.70;99.90;;;;;;5002390;28;20458;-68
2024/01/15 06:12:09;;;;;;;11.37;7.13;;;2.60;99.90;;;;;;5000638;28;20833;-68
2024/01/15 06:14:35;;;;;;;13.40;6.47;;;2.60;99.90;;;;;;5005992;28;20945;-68
2024/01/15 06:17:02;;;;;;;7.07;4.63;;;2.60;99.90;;;;;;5003966;28;20428;-68
2024/01/15 06:19:29;;;;;;;7.53;5.37;;;2.60;99.90;;;;;;5004277;28;20541;-67
2024/01/15 06:21:56;;;;;;;3.90;2.30;;;2.60;99.90;;;;;;5001037;28;20502;-69
2024/01/15 06:24:24;;;;;;;1.63;1.53;;;2.50;99.90;;;;;;5011345;28;20472;-68
2024/01/15 06:26:50;;;;;;;10.80;2.53;;;2.50;99.90;;;;;;5001870;28;20450;-69
2024/01/15 06:29:18;;;;;;;12.33;6.47;;;2.60;99.90;;;;;;5004001;28;20458;-68
2024/01/15 06:31:44;;;;;;;11.63;6.83;;;2.60;99.90;;;;;;5001077;28;20788;-68
2024/01/15 06:34:11;;;;;;;6.90;3.40;;;2.60;99.90;;;;;;4999246;28;20469;-68
2024/01/15 06:36:38;;;;;;;5.97;5.37;;;2.70;99.90;;;;;;5004199;28;20986;-67
2024/01/15 06:39:05;;;;;;;6.53;5.50;;;2.70;99.90;;;;;;5009734;28;20446;-71
2024/01/15 06:41:33;;;;;;;7.40;5.30;;;2.60;99.90;;;;;;5001102;28;20456;-67
2024/01/15 06:44:00;;;;;;;17.90;10.10;;;2.60;99.90;;;;;;5005122;28;20451;-68
2024/01/15 06:46:26;;;;;;;11.97;4.40;;;2.60;99.90;;;;;;4999543;28;21119;-68
2024/01/15 06:48:53;;;;;;;9.93;5.67;;;2.60;99.90;;;;;;4997593;28;20452;-68
2024/01/15 06:51:20;;;;;;;1.67;1.57;;;2.50;99.90;;;;;;5001594;28;20424;-68
2024/01/15 06:53:47;;;;;;;5.30;4.87;;;2.60;99.90;;;;;;5003634;28;20432;-68
2024/01/15 06:56:13;;;;;;;10.00;5.40;;;2.60;99.90;;;;;;5004069;28;20473;-68
2024/01/15 06:58:41;;;;;;;5.90;4.20;;;2.50;99.90;;;;;;5006789;28;20426;-68
2024/01/15 07:01:08;;;;;;;7.33;6.00;;;2.60;99.90;;;;;;4997523;28;20474;-68
2024/01/15 07:03:35;;;;;;;16.70;4.50;;;2.60;99.90;;;;;;4995921;28;20492;-69
2024/01/15 07:06:02;;;;;;;4.40;4.00;;;2.60;99.90;;;;;;4999743;28;20969;-68
2024/01/15 07:08:28;;;;;;;8.00;5.07;;;2.70;99.90;;;;;;5002953;28;20441;-68
2024/01/15 07:10:55;;;;;;;14.80;6.63;;;2.60;99.90;;;;;;5001016;28;20461;-68
2024/01/15 07:13:22;;;;;;;6.80;4.60;;;2.50;99.90;;;;;;5001184;28;20455;-68
2024/01/15 07:15:50;;;;;;;11.20;5.17;;;2.60;99.90;;;;;;5001414;28;20496;-68
2024/01/15 07:18:17;;;;;;;5.47;2.80;;;2.60;99.90;;;;;;4999131;28;20826;-68
2024/01/15 07:20:44;;;;;;;28.67;8.77;;;2.60;99.90;;;;;;5004032;28;20461;-68
2024/01/15 07:23:12;;;;;;;8.77;6.07;;;2.70;99.90;;;;;;4995391;28;20497;-68
2024/01/15 07:25:38;;;;;;;9.83;7.80;;;2.70;99.90;;;;;;4999554;28;20868;-68
2024/01/15 07:28:06;;;;;;;5.30;3.83;;;2.70;99.90;;;;;;5001797;28;20424;-67
2024/01/15 07:30:32;;;;;;;5.77;3.73;;;2.60;99.90;;;;;;5001931;28;20439;-68
2024/01/15 07:33:00;;;;;;;2.80;2.17;;;2.60;99.90;;;;;;5000696;28;20465;-67
2024/01/15 07:35:27;;;;;;;3.80;3.40;;;2.70;99.90;;;;;;5001141;28;20578;-68
2024/01/15 07:37:54;;;;;;;2.90;2.70;;;2.60;99.90;;;;;;5002413;28;20445;-68
2024/01/15 07:40:21;;;;;;;7.17;3.47;;;2.50;99.90;;;;;;5006633;28;21111;-68
2024/01/15 07:42:47;;;;;;;3.90;2.70;;;2.60;99.90;;;;;;4997992;28;20485;-69
2024/01/15 07:45:14;;;;;;;2.07;1.77;;;2.60;99.90;;;;;;5005027;28;20876;-68
2024/01/15 07:47:41;;;;;;;3.63;3.43;;;2.60;99.90;;;;;;5001774;28;21845;-68
2024/01/15 07:50:09;;;;;;;2.30;1.67;;;2.60;99.90;;;;;;5002308;28;20459;-68
2024/01/15 07:52:36;;;;;;;4.10;2.63;;;2.60;99.90;;;;;;4999845;28;21068;-68
2024/01/15 07:55:03;;;;;;;6.97;2.70;;;2.60;99.90;;;;;;5003371;28;20474;-68
2024/01/15 07:57:30;;;;;;;7.40;3.70;;;2.60;99.90;;;;;;5005185;28;20451;-69
2024/01/15 07:59:57;;;;;;;2.27;1.43;;;2.50;99.90;;;;;;5007181;28;20461;-68
2024/01/15 08:02:23;;;;;;;2.60;1.73;;;2.50;99.90;;;;;;4996746;28;20481;-68
2024/01/15 08:04:50;;;;;;;3.93;3.63;;;2.50;99.90;;;;;;5001857;28;20480;-69
2024/01/15 08:07:18;;;;;;;1.70;1.60;;;2.50;99.90;;;;;;5006533;28;20911;-68
2024/01/15 08:09:47;;;;;;;3.37;1.93;;;2.50;99.90;;;;;;5004445;28;20449;-69
2024/01/15 08:12:14;;;;;;;4.90;2.27;;;2.50;99.90;;;;;;4989041;28;20814;-69
2024/01/15 08:14:41;;;;;;;29.87;3.00;;;2.60;99.90;;;;;;4993619;28;20455;-68
2024/01/15 08:17:07;;;;;;;2.67;2.47;;;2.50;99.90;;;;;;5004939;28;20692;-68
2024/01/15 08:19:34;;;;;;;2.70;2.50;;;2.40;99.90;;;;;;5006067;28;20424;-68
2024/01/15 08:22:01;;;;;;;3.87;2.90;;;2.40;99.90;;;;;;4992592;28;20512;-68
2024/01/15 08:24:29;;;;;;;1.83;1.57;;;2.30;99.90;;;;;;5016041;28;20446;-68
2024/01/15 08:26:56;;;;;;;2.60;2.40;;;2.30;99.90;;;;;;5001702;28;20494;-68
2024/01/15 08:29:24;;;;;;;2.80;1.80;;;2.30;99.90;;;;;;5006000;28;20527;-68
2024/01/15 08:31:51;;;;;;;3.87;1.60;;;2.30;99.90;;;;;;5000326;28;20454;-68
2024/01/15 08:34:18;;;;;;;2.40;2.20;;;2.30;99.90;;;;;;4992680;28;21623;-68
2024/01/15 08:36:44;;;;;;;5.40;2.53;;;2.30;99.90;;;;;;4996646;28;20438;-68
2024/01/15 08:39:11;;;;;;;2.70;1.93;;;2.20;99.90;;;;;;5010592;28;20442;-69
2024/01/15 08:41:39;;;;;;;8.10;2.87;;;2.20;99.90;;;;;;5000365;28;20477;-68
2024/01/15 08:44:06;;;;;;;6.47;4.20;;;2.30;99.90;;;;;;4999025;28;20468;-68
2024/01/15 08:46:33;;;;;;;5.80;4.37;;;2.30;99.90;;;;;;5006500;28;20464;-68
2024/01/15 08:48:59;;;;;;;1.20;1.10;;;2.30;99.90;;;;;;5002408;28;20510;-69
2024/01/15 08:51:26;;;;;;;7.80;3.87;;;2.40;99.90;;;;;;4998693;28;20449;-68
2024/01/15 08:53:53;;;;;;;6.17;4.00;;;2.40;99.90;;;;;;5000606;28;20581;-68
2024/01/15 08:56:19;;;;;;;11.57;5.90;;;2.40;99.90;;;;;;5003347;28;20963;-68
2024/01/15 08:58:47;;;;;;;5.73;3.53;;;2.40;99.90;;;;;;5013175;28;20461;-69
2024/01/15 09:01:14;;;;;;;9.80;4.33;;;2.50;99.90;;;;;;5008100;28;20427;-69
2024/01/15 09:03:42;;;;;;;3.90;3.60;;;2.50;99.90;;;;;;5003655;28;20583;-68
2024/01/15 09:06:09;;;;;;;14.40;7.53;;;2.50;99.90;;;;;;5016747;28;20805;-69
2024/01/15 09:08:36;;;;;;;5.27;2.70;;;2.60;99.90;;;;;;5005666;28;20498;-68
2024/01/15 09:11:03;;;;;;;7.80;5.33;;;2.40;99.90;;;;;;4998901;28;20435;-68
2024/01/15 09:13:30;;;;;;;12.60;3.80;;;2.50;99.90;;;;;;5006981;28;20549;-69
2024/01/15 09:16:02;;;;;;;7.50;5.50;;;2.50;99.90;;;;;;5005482;28;20447;-68
2024/01/15 09:18:29;;;;;;;4.73;3.33;;;2.50;99.90;;;;;;5001134;28;20465;-67
2024/01/15 09:20:56;;;;;;;6.57;5.27;;;2.50;99.90;;;;;;5001971;28;20778;-69
2024/01/15 09:23:22;;;;;;;6.70;4.90;;;2.50;99.90;;;;;;5006850;28;20580;-68
2024/01/15 09:25:49;;;;;;;8.23;4.90;;;2.50;99.90;;;;;;5001157;28;20452;-68
2024/01/15 09:28:16;;;;;;;7.80;3.90;;;2.50;99.90;;;;;;5003385;28;20448;-67
2024/01/15 09:30:44;;;;;;;5.60;3.13;;;2.40;99.90;;;;;;5001461;28;20452;-68
2024/01/15 09:33:12;;;;;;;6.70;5.23;;;2.30;99.90;;;;;;5003910;28;20455;-68
2024/01/15 09:35:39;;;;;;;4.97;3.40;;;2.30;99.90;;;;;;4994859;28;20523;-67
2024/01/15 09:38:06;;;;;;;10.20;5.00;;;2.30;99.90;;;;;;5004831;28;20546;-68
2024/01/15 09:40:34;;;;;;;4.43;3.17;;;2.30;99.90;;;;;;5000652;28;20827;-68
2024/01/15 09:43:02;;;;;;;4.00;2.93;;;2.30;99.90;;;;;;5005698;28;20533;-68
2024/01/15 09:45:30;;;;;;;4.47;3.27;;;2.30;99.90;;;;;;5005711;28;20447;-68
2024/01/15 09:47:57;;;;;;;5.33;4.00;;;2.20;99.90;;;;;;4997410;28;20519;-68
2024/01/15 09:50:26;;;;;;;0.90;0.80;;;2.20;99.90;;;;;;5007462;28;20438;-68
2024/01/15 09:52:53;;;;;;;4.27;3.93;;;2.20;99.90;;;;;;5005946;28;20461;-68
2024/01/15 09:55:20;;;;;;;3.90;3.10;;;2.20;99.90;;;;;;5000513;28;20505;-68
2024/01/15 09:57:47;;;;;;;4.37;2.90;;;2.10;99.90;;;;;;5003226;28;20473;-68
2024/01/15 10:00:15;;;;;;;2.73;2.50;;;2.20;99.90;;;;;;5009436;28;20427;-68
2024/01/15 10:02:44;;;;;;;1.50;1.40;;;2.20;99.90;;;;;;5006809;28;20452;-68
2024/01/15 10:05:11;;;;;;;3.80;3.47;;;2.30;99.90;;;;;;5007374;28;20447;-68
2024/01/15 10:07:40;;;;;;;2.30;2.20;;;2.30;99.90;;;;;;5006917;28;20957;-68
2024/01/15 10:10:08;;;;;;;3.80;3.00;;;2.30;99.90;;;;;;4996842;28;20533;-67
2024/01/15 10:12:36;;;;;;;7.67;2.33;;;2.40;99.90;;;;;;5006323;28;20424;-68
2024/01/15 10:15:04;;;;;;;2.80;1.67;;;2.40;99.90;;;;;;5012346;28;20443;-69
2024/01/15 10:17:31;;;;;;;1.50;1.40;;;2.40;99.90;;;;;;5018504;28;20457;-69
2024/01/15 10:19:57;;;;;;;3.33;2.03;;;2.50;99.90;;;;;;5005644;28;20461;-68
2024/01/15 10:22:24;;;;;;;4.30;3.63;;;2.50;99.90;;;;;;4997948;28;20446;-68
2024/01/15 10:24:52;;;;;;;1.77;1.53;;;2.40;99.90;;;;;;5003546;28;20444;-68
2024/01/15 10:27:19;;;;;;;4.27;2.80;;;2.40;99.90;;;;;;5004480;28;20423;-68
2024/01/15 10:29:46;;;;;;;4.40;2.83;;;2.30;99.90;;;;;;5006679;28;20785;-68
2024/01/15 10:32:13;;;;;;;2.23;2.03;;;2.30;99.90;;;;;;5004248;28;20477;-68
2024/01/15 10:34:40;;;;;;;3.40;2.27;;;2.40;99.90;;;;;;5007998;28;20441;-68
2024/01/15 10:37:09;;;;;;;3.60;3.30;;;2.40;99.90;;;;;;5006920;28;20445;-68
2024/01/15 10:39:36;;;;;;;3.10;2.80;;;2.40;99.90;;;;;;5004689;28;20449;-69
2024/01/15 10:42:06;;;;;;;6.43;3.50;;;2.50;99.90;;;;;;4996649;28;20431;-68
2024/01/15 10:44:32;;;;;;;7.73;3.20;;;2.50;99.90;;;;;;5017152;23;20440;-67
2024/01/15 10:47:00;;;;;;;2.70;1.90;;;2.70;99.90;;;;;;4996006;28;20440;-67
2024/01/15 10:49:29;;;;;;;4.20;3.77;;;2.70;99.90;;;;;;5002013;28;20434;-67
2024/01/15 10:51:56;;;;;;;2.20;2.00;;;2.60;99.90;;;;;;4999998;28;20462;-67
2024/01/15 10:54:24;;;;;;;3.37;2.97;;;2.50;99.90;;;;;;4998327;28;20468;-67
2024/01/15 10:56:52;;;;;;;3.30;3.07;;;2.50;99.90;;;;;;4984081;28;20458;-67
2024/01/15 10:59:21;;;;;;;3.67;3.33;;;2.50;99.90;;;;;;4985211;28;20778;-67
2024/01/15 11:01:49;;;;;;;2.93;2.63;;;2.60;99.90;;;;;;4988292;28;20426;-67
2024/01/15 11:04:16;;;;;;;1.97;1.77;;;2.70;99.90;;;;;;4985145;28;20452;-67
2024/01/15 11:06:45;;;;;;;4.30;2.50;;;2.80;99.90;;;;;;4985683;28;20424;-66
2024/01/15 11:09:13;;;;;;;5.27;3.10;;;2.80;99.90;;;;;;4983038;28;20436;-67
2024/01/15 11:11:42;;;;;;;3.53;1.97;;;2.80;99.90;;;;;;4980185;28;20428;-67
2024/01/15 11:14:09;;;;;;;2.73;1.80;;;3.00;99.90;;;;;;4986953;28;20464;-67
2024/01/15 11:16:59;;;;;;;3.73;2.57;;;3.20;99.90;;;;;;4982686;28;20533;-67
2024/01/15 11:19:27;;;;;;;5.43;1.77;;;3.20;99.90;;;;;;4982398;28;20421;-67
2024/01/15 11:21:53;;;;;;;5.40;2.43;;;3.10;99.90;;;;;;4984208;28;20503;-67
2024/01/15 11:24:40;;;;;;;1.90;1.30;;;3.10;99.90;;;;;;4982716;28;20462;-67
2024/01/15 11:27:08;;;;;;;1.37;1.27;;;3.00;99.90;;;;;;4980259;28;21359;-66
2024/01/15 11:29:35;;;;;;;5.60;3.00;;;3.00;99.90;;;;;;4989235;28;20413;-66
2024/01/15 11:32:05;;;;;;;1.90;1.80;;;3.10;99.90;;;;;;4981248;28;20914;-66
2024/01/15 11:34:52;;;;;;;3.63;1.93;;;3.20;99.90;;;;;;4979594;28;20553;-66
2024/01/15 11:37:19;;;;;;;4.20;2.70;;;3.20;99.90;;;;;;4977268;28;20437;-66
2024/01/15 11:39:47;;;;;;;3.53;2.63;;;3.30;99.90;;;;;;4986137;28;20438;-66
2024/01/15 11:42:15;;;;;;;2.60;2.40;;;3.40;99.90;;;;;;4982457;28;20894;-66
2024/01/15 11:44:42;;;;;;;2.80;2.43;;;3.40;99.90;;;;;;4982856;28;20466;-66
2024/01/15 11:47:13;;;;;;;1.70;1.60;;;3.20;99.90;;;;;;4977456;28;20489;-66
2024/01/15 11:50:02;;;;;;;1.33;1.20;;;3.20;99.90;;;;;;4979500;28;20781;-66
2024/01/15 11:52:34;;;;;;;3.83;1.70;;;3.30;99.90;;;;;;4989423;28;20464;-66
2024/01/15 11:55:12;;;;;;;3.63;2.27;;;3.30;99.90;;;;;;4986493;28;20517;-67
2024/01/15 11:57:44;;;;;;;1.03;0.93;;;3.30;99.90;;;;;;4982163;28;20532;-67
2024/01/15 12:00:14;;;;;;;2.33;2.13;;;3.20;99.90;;;;;;4986905;28;20436;-66
2024/01/15 12:02:43;;;;;;;1.47;1.37;;;3.10;99.90;;;;;;4986932;28;20519;-67
2024/01/15 12:05:12;;;;;;;1.40;1.03;;;3.20;99.90;;;;;;4983426;28;20455;-66
2024/01/15 12:07:39;;;;;;;1.50;1.40;;;3.20;99.90;;;;;;4984137;28;20560;-66
2024/01/15 12:10:10;;;;;;;3.00;2.80;;;3.10;99.90;;;;;;4987256;28;20435;-66
2024/01/15 12:12:47;;;;;;;1.83;1.53;;;3.20;99.90;;;;;;4986990;28;20437;-66
2024/01/15 12:15:14;;;;;;;1.83;1.60;;;3.20;99.90;;;;;;4985575;28;21095;-66
2024/01/15 12:17:43;;;;;;;2.53;1.73;;;2.90;99.90;;;;;;4979323;28;20544;-66
2024/01/15 12:20:11;;;;;;;2.00;1.57;;;2.90;99.90;;;;;;4981894;28;20441;-66
2024/01/15 12:22:37;;;;;;;4.93;2.50;;;2.90;99.90;;;;;;4983135;28;20430;-67
2024/01/15 12:25:05;;;;;;;4.80;3.50;;;3.00;99.90;;;;;;4983517;28;20906;-67
2024/01/15 12:27:32;;;;;;;2.27;1.83;;;3.10;99.90;;;;;;4976414;28;20558;-67
2024/01/15 12:30:00;;;;;;;3.30;2.47;;;3.10;99.90;;;;;;4983528;28;20454;-67
2024/01/15 12:32:26;;;;;;;3.50;2.00;;;3.20;99.90;;;;;;4983504;28;20941;-67
2024/01/15 12:34:54;;;;;;;3.20;2.43;;;3.20;99.90;;;;;;4987021;28;20497;-67
2024/01/15 12:37:21;;;;;;;2.73;2.50;;;3.20;99.90;;;;;;4982607;28;20492;-67
2024/01/15 12:39:48;;;;;;;3.07;2.30;;;3.20;99.90;;;;;;4986796;28;20773;-67
2024/01/15 12:42:16;;;;;;;1.90;1.40;;;3.10;99.90;;;;;;4989236;28;20430;-67
2024/01/15 12:44:43;;;;;;;7.20;3.17;;;3.10;99.90;;;;;;4991676;28;20690;-67
2024/01/15 12:47:10;;;;;;;2.90;2.23;;;3.10;99.90;;;;;;4982397;28;20469;-67
2024/01/15 12:49:38;;;;;;;3.67;2.30;;;3.20;99.90;;;;;;4984944;28;20426;-67
2024/01/15 12:52:09;;;;;;;2.37;2.10;;;3.10;99.90;;;;;;4989625;28;20458;-67
2024/01/15 12:54:36;;;;;;;2.07;1.90;;;3.20;99.90;;;;;;4992007;28;20916;-67